Time;durP1;ratioP1;P1;durP2;ratioP2;P2;SDS_P1;SDS_P2;PMS_P1;PMS_P2;Temp;Humidity;BMP_temperature;BMP_pressure;BME280_temperature;BME280_humidity;BME280_pressure;Samples;Min_cycle;Max_cycle;Signal;HPM_P1;HPM_P2
2023/02/09 00:01:54;;;;;;;12.52;6.47;;;1.00;99.90;;;;;;4904299;29;20045;-96
2023/02/09 00:04:24;;;;;;;10.50;6.60;;;1.00;99.90;;;;;;4904650;29;20017;-96
2023/02/09 00:06:50;;;;;;;9.85;6.38;;;1.00;99.90;;;;;;4888711;29;20056;-96
2023/02/09 00:09:16;;;;;;;10.95;6.40;;;1.00;99.90;;;;;;4905065;29;20041;-95
2023/02/09 00:14:56;;;;;;;9.63;6.35;;;1.00;99.90;;;;;;4886016;29;20049;-95
2023/02/09 00:17:35;;;;;;;11.32;6.57;;;1.00;99.90;;;;;;4902033;29;20049;-94
2023/02/09 00:20:24;;;;;;;9.45;6.22;;;1.00;99.90;;;;;;4902840;29;20040;-94
2023/02/09 00:23:34;;;;;;;12.75;6.40;;;1.00;99.90;;;;;;4917718;29;20115;-95
2023/02/09 00:26:10;;;;;;;12.38;6.70;;;0.90;99.90;;;;;;4905617;29;20035;-95
2023/02/09 00:28:39;;;;;;;9.82;6.22;;;0.90;99.90;;;;;;4886779;29;20028;-95
2023/02/09 00:31:17;;;;;;;11.50;6.15;;;0.90;99.90;;;;;;4892051;29;20139;-96
2023/02/09 00:33:51;;;;;;;11.38;6.60;;;0.90;99.90;;;;;;4907063;29;20055;-96
2023/02/09 00:36:28;;;;;;;10.70;6.15;;;0.90;99.90;;;;;;4906593;29;20050;-96
2023/02/09 00:39:06;;;;;;;11.10;6.40;;;0.80;99.90;;;;;;4921115;29;20053;-96
2023/02/09 01:04:41;;;;;;;11.75;7.05;;;0.70;99.90;;;;;;4898533;29;20085;-96
2023/02/09 01:07:07;;;;;;;;;;;0.70;99.90;;;;;;4888312;29;20041;-96
2023/02/09 01:10:02;;;;;;;12.98;6.57;;;0.70;99.90;;;;;;4901797;29;20022;-96
2023/02/09 01:12:46;;;;;;;13.07;7.30;;;0.70;99.90;;;;;;4883162;29;20120;-95
2023/02/09 01:15:15;;;;;;;12.10;6.60;;;0.70;99.90;;;;;;4885245;29;20056;-96
2023/02/09 01:17:46;;;;;;;13.98;6.60;;;0.70;99.90;;;;;;4904189;29;20061;-96
2023/02/09 01:20:20;;;;;;;11.57;6.72;;;0.70;99.80;;;;;;4882190;29;20052;-95
2023/02/09 01:23:30;;;;;;;10.63;6.85;;;0.70;99.50;;;;;;4921660;23;20069;-95
2023/02/09 01:26:04;;;;;;;12.40;7.15;;;0.70;99.60;;;;;;4876811;29;20498;-95
2023/02/09 01:28:30;;;;;;;12.52;6.82;;;0.70;99.80;;;;;;4877894;29;20045;-95
2023/02/09 01:31:43;;;;;;;11.88;6.82;;;0.70;99.90;;;;;;4882753;29;20052;-96
2023/02/09 01:34:13;;;;;;;11.98;6.90;;;0.70;99.90;;;;;;4899375;29;20052;-96
2023/02/09 01:36:39;;;;;;;11.60;7.13;;;0.70;99.90;;;;;;4883549;29;20100;-96
2023/02/09 01:39:12;;;;;;;11.73;7.10;;;0.60;99.90;;;;;;4880654;29;20073;-96
2023/02/09 01:41:38;;;;;;;11.18;6.85;;;0.70;99.90;;;;;;4864927;29;20057;-95
2023/02/09 01:44:12;;;;;;;12.30;6.75;;;0.70;99.90;;;;;;4879329;29;20033;-96
2023/02/09 01:46:44;;;;;;;10.35;6.80;;;0.70;99.90;;;;;;4876339;29;20132;-96
2023/02/09 01:49:27;;;;;;;11.52;7.10;;;0.70;99.90;;;;;;4865640;29;20045;-96
2023/02/09 01:52:02;;;;;;;10.63;5.97;;;0.60;99.90;;;;;;4878989;29;20045;-96
2023/02/09 01:54:57;;;;;;;12.23;7.30;;;0.70;99.90;;;;;;4859969;29;20049;-95
2023/02/09 01:57:37;;;;;;;11.60;6.38;;;0.60;99.90;;;;;;4861298;29;20050;-96
2023/02/09 02:00:31;;;;;;;10.90;6.30;;;0.60;99.90;;;;;;4858256;29;20076;-95
2023/02/09 02:03:04;;;;;;;11.27;6.35;;;0.60;99.70;;;;;;4860408;29;20034;-96
2023/02/09 02:05:38;;;;;;;13.10;7.18;;;0.60;99.20;;;;;;4862039;29;20046;-96
2023/02/09 02:08:19;;;;;;;11.25;6.38;;;0.60;99.00;;;;;;4878023;29;20047;-96
2023/02/09 02:10:51;;;;;;;10.07;5.88;;;0.60;98.80;;;;;;4877846;29;20072;-95
2023/02/09 02:13:17;;;;;;;15.07;6.53;;;0.50;98.70;;;;;;4861946;29;20081;-95
2023/02/09 02:19:12;;;;;;;13.30;7.18;;;0.50;98.00;;;;;;4893450;29;20055;-95
2023/02/09 02:21:53;;;;;;;12.75;7.20;;;0.50;97.80;;;;;;4905295;29;20405;-94
2023/02/09 02:24:21;;;;;;;11.77;7.13;;;0.50;98.00;;;;;;4907576;29;20048;-95
2023/02/09 02:27:10;;;;;;;11.55;6.47;;;0.60;98.10;;;;;;4907685;29;20045;-95
2023/02/09 02:30:27;;;;;;;12.93;7.03;;;0.50;97.80;;;;;;4872661;29;20064;-95
2023/02/09 02:33:15;;;;;;;13.32;7.72;;;0.50;97.60;;;;;;4907575;29;20073;-94
2023/02/09 02:35:59;;;;;;;12.35;7.22;;;0.50;97.80;;;;;;4892194;29;20044;-95
2023/02/09 02:39:05;;;;;;;12.35;6.65;;;0.50;97.90;;;;;;4875049;29;20052;-94
2023/02/09 02:45:15;;;;;;;11.80;7.25;;;0.50;97.90;;;;;;4908458;29;20112;-95
2023/02/09 02:50:23;;;;;;;12.45;6.78;;;0.40;98.50;;;;;;4915555;23;20573;-95
2023/02/09 02:52:56;;;;;;;14.05;6.72;;;0.40;98.50;;;;;;4890639;29;20053;-95
2023/02/09 02:55:26;;;;;;;13.82;7.22;;;0.40;98.60;;;;;;4889857;29;20048;-95
2023/02/09 02:57:58;;;;;;;12.13;7.05;;;0.50;98.50;;;;;;4875521;29;20053;-95
2023/02/09 03:00:45;;;;;;;14.00;6.53;;;0.50;98.40;;;;;;4878225;29;20049;-94
2023/02/09 03:03:48;;;;;;;13.55;6.93;;;0.40;98.10;;;;;;4894978;29;20045;-93
2023/02/09 03:06:35;;;;;;;11.55;6.20;;;0.40;98.10;;;;;;4863600;29;20100;-94
2023/02/09 03:09:07;;;;;;;12.55;7.18;;;0.40;97.80;;;;;;4877591;29;20180;-94
2023/02/09 03:11:43;;;;;;;11.73;7.22;;;0.40;97.80;;;;;;4875446;29;20087;-95
2023/02/09 03:14:22;;;;;;;17.20;6.85;;;0.40;98.10;;;;;;4890448;29;20105;-95
2023/02/09 03:16:49;;;;;;;12.63;6.75;;;0.30;98.00;;;;;;4852132;29;20486;-95
2023/02/09 03:19:42;;;;;;;14.45;7.22;;;0.30;97.90;;;;;;4868619;29;20049;-95
2023/02/09 03:22:47;;;;;;;12.98;7.30;;;0.30;97.80;;;;;;4870847;29;20447;-96
2023/02/09 03:25:44;;;;;;;12.25;7.40;;;0.30;97.80;;;;;;4869269;29;20391;-95
2023/02/09 03:31:15;;;;;;;12.65;6.78;;;0.30;98.50;;;;;;4864696;29;20505;-95
2023/02/09 03:33:48;;;;;;;12.93;7.28;;;0.30;98.60;;;;;;4868380;29;20048;-95
2023/02/09 03:36:17;;;;;;;11.63;7.03;;;0.30;98.50;;;;;;4867110;29;20076;-95
2023/02/09 03:38:45;;;;;;;13.25;6.80;;;0.30;98.50;;;;;;4869378;29;20056;-95
2023/02/09 03:41:25;;;;;;;10.63;6.30;;;0.30;98.30;;;;;;4882512;29;20144;-94
2023/02/09 03:47:05;;;;;;;12.48;6.78;;;0.30;98.20;;;;;;4883221;29;20049;-96
2023/02/09 03:49:39;;;;;;;13.32;6.78;;;0.30;98.20;;;;;;4883411;29;20417;-95
2023/02/09 03:52:07;;;;;;;10.95;6.78;;;0.20;98.10;;;;;;4896199;23;20045;-96
2023/02/09 03:54:34;;;;;;;14.43;7.30;;;0.20;98.10;;;;;;4881155;29;20486;-95
2023/02/09 03:57:00;;;;;;;11.82;6.97;;;0.20;98.10;;;;;;4893555;29;20608;-95
2023/02/09 03:59:26;;;;;;;11.95;6.65;;;0.20;98.30;;;;;;4894287;29;20065;-96
2023/02/09 04:01:59;;;;;;;11.48;6.53;;;0.20;98.50;;;;;;4895005;29;20060;-96
2023/02/09 04:04:28;;;;;;;13.38;7.10;;;0.20;98.30;;;;;;4896349;29;20049;-96
2023/02/09 04:06:55;;;;;;;12.30;6.63;;;0.20;98.00;;;;;;4890832;29;20063;-96
2023/02/09 04:09:20;;;;;;;12.55;6.35;;;0.20;98.00;;;;;;4893649;29;20111;-96
2023/02/09 04:11:46;;;;;;;15.63;6.70;;;0.20;97.60;;;;;;4876141;29;20069;-93
2023/02/09 04:14:12;;;;;;;12.20;5.93;;;0.20;97.40;;;;;;4879162;29;20061;-95
2023/02/09 04:16:40;;;;;;;11.05;6.78;;;0.20;97.10;;;;;;4896472;29;20470;-95
2023/02/09 04:19:08;;;;;;;11.00;6.43;;;0.20;97.10;;;;;;4879973;29;20082;-96
2023/02/09 04:21:37;;;;;;;12.98;6.75;;;0.20;97.20;;;;;;4894468;29;20060;-96
2023/02/09 04:24:03;;;;;;;12.15;6.10;;;0.20;97.40;;;;;;4891816;29;20040;-94
2023/02/09 04:26:29;;;;;;;13.20;6.50;;;0.30;97.50;;;;;;4895164;29;20041;-94
2023/02/09 04:28:54;;;;;;;12.45;7.15;;;0.30;97.20;;;;;;4890273;29;20077;-95
2023/02/09 04:31:20;;;;;;;11.88;6.68;;;0.20;97.30;;;;;;4873094;29;20055;-94
2023/02/09 04:33:45;;;;;;;9.98;5.65;;;0.30;97.60;;;;;;4873683;29;20132;-95
2023/02/09 04:36:17;;;;;;;12.38;6.45;;;0.30;97.50;;;;;;4891718;29;20052;-95
2023/02/09 04:38:43;;;;;;;12.35;6.70;;;0.20;97.40;;;;;;4904728;29;20045;-96
2023/02/09 04:41:11;;;;;;;12.30;6.95;;;0.20;97.30;;;;;;4886974;29;20107;-95
2023/02/09 04:43:37;;;;;;;10.88;6.07;;;0.20;97.30;;;;;;4892865;29;20485;-93
2023/02/09 04:46:03;;;;;;;11.73;6.60;;;0.20;97.20;;;;;;4891319;29;20036;-95
2023/02/09 04:51:13;;;;;;;10.45;6.35;;;0.20;96.80;;;;;;4887197;29;20064;-95
2023/02/09 04:53:39;;;;;;;10.73;6.07;;;0.30;97.00;;;;;;4871017;29;20048;-95
2023/02/09 04:56:17;;;;;;;10.30;6.03;;;0.20;96.90;;;;;;4872429;29;20049;-94
2023/02/09 05:01:46;;;;;;;10.27;6.05;;;0.20;96.70;;;;;;4871193;29;20053;-95
2023/02/09 05:04:21;;;;;;;11.98;6.75;;;0.20;96.70;;;;;;4870208;29;20045;-95
2023/02/09 05:07:07;;;;;;;11.43;6.18;;;0.20;96.90;;;;;;4888864;29;20053;-95
2023/02/09 05:09:39;;;;;;;10.65;6.53;;;0.20;96.80;;;;;;4888297;29;20052;-96
2023/02/09 05:12:15;;;;;;;11.13;6.50;;;0.20;96.90;;;;;;4870432;29;20055;-95
2023/02/09 05:14:49;;;;;;;11.00;6.20;;;0.10;97.20;;;;;;4871027;29;20485;-95
2023/02/09 05:17:20;;;;;;;12.75;6.38;;;0.10;97.10;;;;;;4870633;29;20498;-95
2023/02/09 05:19:48;;;;;;;11.57;6.15;;;0.10;97.10;;;;;;4871599;29;20379;-95
2023/02/09 05:22:14;;;;;;;10.88;6.40;;;0.10;96.90;;;;;;4871925;29;20036;-95
2023/02/09 05:24:47;;;;;;;11.88;6.30;;;0.10;96.80;;;;;;4890957;29;20068;-96
2023/02/09 05:27:27;;;;;;;14.05;7.00;;;0.10;96.60;;;;;;4868872;29;20090;-96
2023/02/09 05:29:58;;;;;;;11.27;5.93;;;0.10;96.60;;;;;;4860732;29;20466;-95
2023/02/09 05:32:41;;;;;;;11.57;6.35;;;0.10;96.60;;;;;;4870080;29;20049;-95
2023/02/09 05:35:06;;;;;;;11.38;6.55;;;0.00;96.40;;;;;;4868570;29;20049;-94
2023/02/09 05:37:44;;;;;;;12.55;6.50;;;0.00;96.50;;;;;;4870334;29;20056;-95
2023/02/09 05:40:19;;;;;;;14.85;6.53;;;0.00;96.50;;;;;;4870914;29;20472;-96
2023/02/09 05:42:47;;;;;;;10.80;6.22;;;0.00;96.60;;;;;;4864613;29;20054;-95
2023/02/09 05:45:25;;;;;;;12.50;6.70;;;0.00;96.50;;;;;;4855796;29;20050;-95
2023/02/09 05:47:51;;;;;;;12.38;6.32;;;0.00;96.60;;;;;;4867502;29;20129;-95
2023/02/09 05:50:59;;;;;;;11.02;6.45;;;0.00;96.80;;;;;;4849183;29;20081;-95
2023/02/09 05:53:34;;;;;;;11.18;5.82;;;-0.10;96.60;;;;;;4882879;29;21589;-96
2023/02/09 05:56:05;;;;;;;12.63;7.13;;;0.00;96.80;;;;;;4868346;29;20048;-96
2023/02/09 05:58:34;;;;;;;11.45;6.38;;;0.00;97.10;;;;;;4870032;29;20067;-95
2023/02/09 06:01:01;;;;;;;11.82;6.72;;;0.00;97.60;;;;;;4887148;29;20048;-95
2023/02/09 06:03:35;;;;;;;11.23;6.70;;;0.00;97.60;;;;;;4870406;29;20045;-96
2023/02/09 06:06:07;;;;;;;12.73;6.88;;;0.00;97.80;;;;;;4884762;29;20056;-94
2023/02/09 06:08:41;;;;;;;10.60;6.10;;;0.00;98.00;;;;;;4914794;23;20087;-95
2023/02/09 06:11:12;;;;;;;11.00;6.55;;;-0.10;98.10;;;;;;4850072;29;20054;-94
2023/02/09 06:13:41;;;;;;;10.98;6.65;;;0.00;98.20;;;;;;4867833;29;20550;-94
2023/02/09 06:16:21;;;;;;;13.13;6.80;;;0.00;98.30;;;;;;4864596;29;20056;-94
2023/02/09 06:18:50;;;;;;;11.90;6.18;;;0.00;98.40;;;;;;4848619;29;20125;-95
2023/02/09 06:21:19;;;;;;;12.75;6.78;;;0.00;98.30;;;;;;4849078;29;20116;-94
2023/02/09 06:23:53;;;;;;;11.00;6.30;;;-0.10;98.20;;;;;;4869720;29;20064;-94
2023/02/09 06:26:24;;;;;;;10.30;6.38;;;-0.10;98.30;;;;;;4871298;29;20069;-93
2023/02/09 06:28:50;;;;;;;11.27;6.50;;;0.00;98.40;;;;;;4871993;29;20053;-94
2023/02/09 06:31:24;;;;;;;11.63;6.88;;;0.00;98.20;;;;;;4855584;29;20056;-94
2023/02/09 06:34:04;;;;;;;11.50;6.40;;;-0.10;98.50;;;;;;4853595;29;20057;-95
2023/02/09 06:36:39;;;;;;;11.73;6.50;;;-0.10;98.70;;;;;;4835274;29;20069;-94
2023/02/09 06:39:11;;;;;;;10.45;5.78;;;-0.10;98.40;;;;;;4834841;29;20136;-95
2023/02/09 06:41:52;;;;;;;11.93;6.43;;;-0.10;98.40;;;;;;4848023;29;20045;-94
2023/02/09 06:44:26;;;;;;;11.82;6.65;;;-0.20;98.30;;;;;;4849131;29;20128;-93
2023/02/09 06:46:52;;;;;;;14.50;8.23;;;-0.10;98.50;;;;;;4877950;29;20048;-94
2023/02/09 06:49:30;;;;;;;26.55;14.45;;;-0.10;98.60;;;;;;4872149;29;20393;-95
2023/02/09 06:52:04;;;;;;;15.02;8.40;;;-0.20;98.70;;;;;;4865380;29;20109;-95
2023/02/09 06:54:36;;;;;;;12.70;7.57;;;-0.10;98.70;;;;;;4847249;29;20045;-94
2023/02/09 06:57:11;;;;;;;13.25;8.23;;;-0.10;98.70;;;;;;4846754;29;20052;-92
2023/02/09 06:59:43;;;;;;;12.35;8.05;;;-0.10;98.70;;;;;;4863022;29;20046;-92
2023/02/09 07:02:20;;;;;;;12.82;7.60;;;-0.10;98.80;;;;;;4851320;29;20125;-91
2023/02/09 07:04:49;;;;;;;14.88;7.75;;;-0.10;98.70;;;;;;4862362;29;20525;-91
2023/02/09 07:07:27;;;;;;;12.18;7.22;;;-0.10;98.70;;;;;;4846056;29;20041;-91
2023/02/09 07:09:59;;;;;;;10.82;6.68;;;-0.10;98.50;;;;;;4845434;29;20506;-94
2023/02/09 07:12:25;;;;;;;12.93;7.53;;;-0.10;98.20;;;;;;4861725;29;20042;-93
2023/02/09 07:15:03;;;;;;;11.00;7.00;;;-0.10;98.10;;;;;;4861906;29;20045;-91
2023/02/09 07:17:35;;;;;;;11.82;6.82;;;-0.10;98.30;;;;;;4861022;29;20049;-92
2023/02/09 07:20:05;;;;;;;13.70;7.35;;;-0.10;98.20;;;;;;4861657;29;20481;-92
2023/02/09 07:22:36;;;;;;;12.00;6.22;;;-0.10;98.30;;;;;;4856462;29;20052;-93
2023/02/09 07:25:10;;;;;;;12.90;6.75;;;-0.10;98.10;;;;;;4860497;29;20052;-90
2023/02/09 07:27:43;;;;;;;12.75;6.82;;;-0.10;97.90;;;;;;4861326;29;20050;-90
2023/02/09 07:30:18;;;;;;;12.88;7.70;;;-0.10;97.70;;;;;;4853552;29;20052;-95
2023/02/09 07:35:22;;;;;;;11.27;7.03;;;-0.10;97.70;;;;;;4926108;23;20057;-92
2023/02/09 07:38:02;;;;;;;14.43;6.75;;;-0.10;97.60;;;;;;4864104;29;20053;-94
2023/02/09 07:40:49;;;;;;;11.18;6.00;;;-0.10;97.70;;;;;;4881315;29;20052;-92
2023/02/09 07:43:15;;;;;;;12.95;6.38;;;-0.10;97.40;;;;;;4864732;29;20052;-91
2023/02/09 07:46:10;;;;;;;14.15;7.40;;;-0.10;97.30;;;;;;4879822;29;20135;-91
2023/02/09 07:48:41;;;;;;;10.80;6.53;;;-0.10;97.40;;;;;;4864649;29;20498;-93
2023/02/09 07:51:27;;;;;;;12.60;6.35;;;-0.10;98.00;;;;;;4849147;29;20066;-91
2023/02/09 07:54:02;;;;;;;12.07;6.82;;;-0.10;97.70;;;;;;4865151;29;20450;-91
2023/02/09 07:56:28;;;;;;;11.25;6.38;;;-0.10;97.60;;;;;;4848520;29;20453;-92
2023/02/09 07:58:54;;;;;;;10.75;6.97;;;-0.10;97.60;;;;;;4865137;29;20053;-92
2023/02/09 08:01:20;;;;;;;11.13;6.47;;;-0.10;97.60;;;;;;4860555;29;20048;-94
2023/02/09 08:03:48;;;;;;;11.48;7.07;;;-0.10;97.70;;;;;;4884245;29;20045;-94
2023/02/09 08:06:31;;;;;;;11.35;6.68;;;0.00;97.80;;;;;;4867104;29;20508;-91
2023/02/09 08:08:59;;;;;;;12.07;7.10;;;0.00;97.90;;;;;;4867206;29;20045;-92
2023/02/09 08:11:48;;;;;;;11.75;7.05;;;0.00;97.90;;;;;;4867117;29;20115;-92
2023/02/09 08:14:19;;;;;;;11.10;6.60;;;0.00;98.10;;;;;;4865751;29;20569;-92
2023/02/09 08:16:47;;;;;;;13.55;7.07;;;0.00;98.30;;;;;;4871260;29;20485;-91
2023/02/09 08:19:21;;;;;;;11.05;6.93;;;0.00;98.30;;;;;;4866706;29;20053;-85
2023/02/09 08:21:49;;;;;;;11.90;6.95;;;0.10;98.30;;;;;;4882940;29;20509;-90
2023/02/09 08:24:17;;;;;;;10.75;6.32;;;0.10;98.30;;;;;;4866475;29;20044;-92
2023/02/09 08:26:43;;;;;;;13.02;7.35;;;0.10;98.20;;;;;;4868610;29;20061;-92
2023/02/09 08:29:09;;;;;;;13.90;7.68;;;0.10;98.10;;;;;;4869184;29;20065;-95
2023/02/09 08:31:35;;;;;;;12.27;7.38;;;0.20;98.40;;;;;;4870886;29;20049;-94
2023/02/09 08:34:00;;;;;;;10.93;7.07;;;0.20;98.60;;;;;;4868970;29;20106;-93
2023/02/09 08:36:26;;;;;;;13.32;6.53;;;0.20;98.60;;;;;;4885349;29;20052;-94
2023/02/09 08:38:52;;;;;;;11.90;6.38;;;0.30;98.40;;;;;;4875085;29;20049;-94
2023/02/09 08:41:17;;;;;;;14.82;7.22;;;0.30;98.10;;;;;;4894933;29;20041;-95
2023/02/09 08:43:50;;;;;;;12.13;7.53;;;0.30;98.00;;;;;;4888661;29;20049;-95
2023/02/09 08:46:16;;;;;;;11.38;7.10;;;0.30;98.00;;;;;;4877049;29;20108;-94
2023/02/09 08:48:44;;;;;;;14.88;7.07;;;0.30;98.00;;;;;;4892627;29;20053;-94
2023/02/09 08:51:13;;;;;;;13.30;7.30;;;0.40;98.10;;;;;;4888518;29;20041;-93
2023/02/09 08:53:39;;;;;;;12.30;6.82;;;0.40;98.00;;;;;;4883770;29;20077;-91
2023/02/09 08:56:05;;;;;;;12.60;7.10;;;0.50;97.90;;;;;;4867911;29;20049;-95
2023/02/09 08:58:32;;;;;;;11.75;6.55;;;0.50;97.80;;;;;;4873565;29;20048;-93
2023/02/09 09:00:58;;;;;;;11.30;6.60;;;0.50;97.70;;;;;;4894612;29;20065;-94
2023/02/09 09:03:30;;;;;;;12.88;6.88;;;0.60;97.50;;;;;;4888069;29;20057;-93
2023/02/09 09:06:00;;;;;;;12.98;7.30;;;0.60;97.40;;;;;;4872425;29;20060;-94
2023/02/09 09:08:26;;;;;;;15.10;7.57;;;0.70;97.50;;;;;;4870631;29;20053;-93
2023/02/09 09:10:51;;;;;;;14.07;7.35;;;0.70;97.40;;;;;;4882595;29;20378;-94
2023/02/09 09:13:18;;;;;;;11.77;6.40;;;0.70;97.50;;;;;;4866906;29;20044;-93
2023/02/09 09:15:44;;;;;;;11.98;7.38;;;0.70;97.40;;;;;;4867272;29;20053;-93
2023/02/09 09:18:10;;;;;;;13.48;7.60;;;0.70;97.40;;;;;;4867508;29;20049;-93
2023/02/09 09:20:39;;;;;;;13.48;8.00;;;0.80;97.30;;;;;;4887931;29;20041;-93
2023/02/09 09:23:05;;;;;;;12.55;7.65;;;0.80;97.30;;;;;;4889105;29;20084;-94
2023/02/09 09:25:31;;;;;;;11.63;7.50;;;0.80;97.40;;;;;;4869192;29;20053;-94
2023/02/09 09:27:56;;;;;;;12.27;7.40;;;0.90;97.60;;;;;;4868290;29;20059;-92
2023/02/09 09:30:22;;;;;;;15.13;7.57;;;0.90;97.60;;;;;;4884187;29;20042;-93
2023/02/09 09:32:48;;;;;;;11.85;7.28;;;0.90;97.70;;;;;;4866026;29;20053;-91
2023/02/09 09:35:13;;;;;;;12.93;7.30;;;1.00;97.70;;;;;;4865567;29;20458;-91
2023/02/09 09:37:39;;;;;;;14.50;7.90;;;1.00;97.40;;;;;;4882338;29;20057;-91
2023/02/09 09:40:05;;;;;;;13.90;7.45;;;1.00;97.40;;;;;;4866210;29;20160;-92
2023/02/09 09:42:36;;;;;;;14.38;7.93;;;1.10;97.50;;;;;;4866535;29;20065;-94
2023/02/09 09:45:04;;;;;;;13.00;6.93;;;1.10;97.20;;;;;;4882655;29;20056;-93
2023/02/09 09:47:38;;;;;;;13.50;7.70;;;1.20;97.10;;;;;;4866643;29;20256;-94
2023/02/09 09:50:12;;;;;;;13.27;7.47;;;1.20;97.00;;;;;;4866673;29;20401;-93
2023/02/09 09:52:41;;;;;;;13.00;7.68;;;1.20;96.90;;;;;;4868863;29;20482;-93
2023/02/09 09:55:12;;;;;;;12.63;7.82;;;1.30;96.90;;;;;;4869728;29;20394;-93
2023/02/09 09:57:43;;;;;;;12.80;7.15;;;1.30;96.90;;;;;;4868403;29;20072;-93
2023/02/09 10:00:16;;;;;;;12.45;7.85;;;1.30;96.90;;;;;;4870270;29;20101;-94
2023/02/09 10:02:43;;;;;;;13.85;8.20;;;1.40;96.90;;;;;;4867886;29;20049;-94
2023/02/09 10:05:18;;;;;;;13.30;7.47;;;1.40;96.80;;;;;;4866715;29;20057;-94
2023/02/09 10:07:53;;;;;;;14.20;7.75;;;1.50;96.50;;;;;;4882692;29;20052;-93
2023/02/09 10:10:53;;;;;;;14.45;7.43;;;1.50;96.30;;;;;;4866898;29;20397;-92
2023/02/09 10:13:29;;;;;;;16.27;8.15;;;1.60;96.20;;;;;;4865413;29;20401;-93
2023/02/09 10:15:56;;;;;;;15.23;8.57;;;1.60;96.30;;;;;;4867110;29;20048;-94
2023/02/09 10:18:26;;;;;;;13.73;8.13;;;1.70;96.30;;;;;;4882569;29;20057;-94
2023/02/09 10:20:57;;;;;;;16.00;8.35;;;1.70;96.20;;;;;;4867477;29;20502;-94
2023/02/09 10:23:27;;;;;;;15.75;8.75;;;1.80;96.20;;;;;;4895702;29;20128;-93
2023/02/09 10:26:01;;;;;;;16.35;8.50;;;1.80;96.40;;;;;;4875320;29;20112;-94
2023/02/09 10:28:32;;;;;;;14.98;8.52;;;1.80;96.50;;;;;;4882652;29;20076;-94
2023/02/09 10:31:01;;;;;;;17.05;8.60;;;1.90;96.80;;;;;;4895805;29;20049;-96
2023/02/09 10:33:36;;;;;;;15.85;8.35;;;1.90;96.30;;;;;;4875561;29;20065;-94
2023/02/09 10:36:04;;;;;;;16.55;9.13;;;2.00;96.10;;;;;;4896891;29;20053;-94
2023/02/09 10:38:31;;;;;;;17.73;9.07;;;2.00;96.10;;;;;;4895317;29;20053;-94
2023/02/09 10:40:58;;;;;;;17.35;8.90;;;2.10;96.00;;;;;;4899878;29;20052;-94
2023/02/09 10:43:33;;;;;;;14.90;8.93;;;2.20;96.00;;;;;;4879210;29;20033;-95
2023/02/09 10:46:02;;;;;;;20.85;9.70;;;2.20;95.90;;;;;;4882820;29;20073;-95
2023/02/09 10:48:37;;;;;;;18.60;10.73;;;2.20;95.90;;;;;;4881940;29;20075;-95
2023/02/09 10:51:27;;;;;;;20.38;10.88;;;2.30;95.80;;;;;;4881369;29;20052;-95
2023/02/09 10:54:06;;;;;;;21.48;11.93;;;2.30;95.70;;;;;;4896988;29;20053;-96
2023/02/09 10:56:40;;;;;;;18.38;11.02;;;2.40;95.80;;;;;;4877342;29;20041;-95
2023/02/09 10:59:21;;;;;;;23.25;11.65;;;2.40;95.80;;;;;;4880251;29;20049;-96
2023/02/09 11:02:28;;;;;;;20.02;11.32;;;2.40;95.80;;;;;;4884232;29;20037;-96
2023/02/09 11:04:54;;;;;;;24.98;12.35;;;2.50;95.50;;;;;;4892716;29;20045;-96
2023/02/09 11:07:24;;;;;;;19.73;10.95;;;2.50;95.80;;;;;;4872097;29;20101;-96
2023/02/09 11:09:50;;;;;;;25.85;12.23;;;2.50;95.80;;;;;;4872572;29;20041;-95
2023/02/09 11:12:19;;;;;;;21.45;10.75;;;2.60;95.70;;;;;;4871784;29;20056;-94
2023/02/09 11:14:45;;;;;;;18.20;10.60;;;2.60;95.70;;;;;;4872464;29;20052;-95
2023/02/09 11:17:35;;;;;;;18.85;10.75;;;2.70;95.80;;;;;;4874407;29;20057;-96
2023/02/09 11:20:38;;;;;;;18.17;10.23;;;2.70;95.70;;;;;;4873924;29;20081;-96
2023/02/09 11:23:30;;;;;;;19.25;10.77;;;2.80;95.60;;;;;;4882158;29;20065;-96
2023/02/09 11:26:54;;;;;;;18.48;10.48;;;2.90;95.60;;;;;;5300216;23;20082;-96
2023/02/09 11:30:10;;;;;;;16.55;10.18;;;3.00;95.60;;;;;;4793500;29;20079;-95
2023/02/09 11:32:53;;;;;;;16.83;10.52;;;3.00;95.60;;;;;;4787904;29;20058;-95
2023/02/09 11:35:36;;;;;;;17.45;10.07;;;3.00;95.60;;;;;;4839205;29;20061;-96
2023/02/09 11:38:14;;;;;;;20.15;11.35;;;3.10;95.60;;;;;;4871528;29;20065;-96
2023/02/09 11:40:50;;;;;;;18.40;10.40;;;3.20;95.70;;;;;;4883580;29;20085;-95
2023/02/09 11:47:32;;;;;;;16.25;10.18;;;3.20;95.50;;;;;;4894599;29;20045;-95
2023/02/09 11:50:14;;;;;;;16.13;9.93;;;3.20;95.60;;;;;;4883520;29;20052;-96
2023/02/09 11:52:59;;;;;;;15.75;10.00;;;3.30;95.70;;;;;;4869190;29;20080;-96
2023/02/09 11:55:51;;;;;;;21.02;10.65;;;3.30;95.70;;;;;;4885349;29;20041;-94
2023/02/09 11:58:44;;;;;;;16.05;10.05;;;3.40;95.60;;;;;;4883865;29;20057;-94
2023/02/09 12:01:56;;;;;;;17.52;11.30;;;3.40;95.70;;;;;;4866619;29;20045;-94
2023/02/09 12:04:30;;;;;;;21.75;10.98;;;3.50;95.70;;;;;;4868452;29;20073;-94
2023/02/09 12:07:03;;;;;;;18.08;10.63;;;3.50;95.90;;;;;;4883387;29;20096;-94
2023/02/09 12:10:04;;;;;;;19.48;10.90;;;3.50;95.90;;;;;;4886490;29;20095;-95
2023/02/09 12:12:45;;;;;;;20.30;13.70;;;3.60;95.90;;;;;;4874420;29;20053;-95
2023/02/09 12:15:23;;;;;;;23.13;14.57;;;3.60;95.90;;;;;;4872546;29;20091;-96
2023/02/09 12:18:14;;;;;;;22.25;14.15;;;3.70;96.00;;;;;;4873524;29;20060;-96
2023/02/09 12:20:45;;;;;;;21.10;13.70;;;3.70;95.80;;;;;;4889419;29;20049;-95
2023/02/09 12:23:36;;;;;;;22.90;13.27;;;3.80;95.80;;;;;;4872804;29;20077;-93
2023/02/09 12:26:14;;;;;;;20.02;11.98;;;3.80;95.70;;;;;;4888406;29;20064;-95
2023/02/09 12:28:44;;;;;;;20.58;11.57;;;3.90;95.80;;;;;;4889796;29;20086;-96
2023/02/09 12:31:26;;;;;;;18.60;11.48;;;3.90;95.80;;;;;;4873390;29;20041;-95
2023/02/09 12:34:21;;;;;;;20.75;13.20;;;3.90;95.80;;;;;;4874449;29;20049;-95
2023/02/09 12:37:33;;;;;;;20.23;11.45;;;4.00;95.80;;;;;;4868714;29;20048;-91
2023/02/09 12:40:28;;;;;;;17.90;11.63;;;4.00;95.80;;;;;;4872569;29;20055;-95
2023/02/09 12:42:59;;;;;;;22.33;12.35;;;4.00;95.90;;;;;;4884886;29;20140;-91
2023/02/09 12:45:34;;;;;;;19.92;12.20;;;4.10;95.90;;;;;;4890276;29;20089;-96
2023/02/09 12:48:18;;;;;;;19.25;11.18;;;4.10;95.90;;;;;;4879689;29;20074;-96
2023/02/09 12:54:55;;;;;;;22.17;12.38;;;4.20;95.90;;;;;;4852950;23;20418;-95
2023/02/09 12:57:24;;;;;;;19.15;12.32;;;4.20;95.90;;;;;;4837479;29;20054;-95
2023/02/09 13:00:05;;;;;;;19.40;12.38;;;4.20;96.00;;;;;;4835761;29;20046;-95
2023/02/09 13:02:55;;;;;;;21.98;12.65;;;4.30;96.00;;;;;;4864744;29;20057;-95
2023/02/09 13:05:37;;;;;;;18.63;12.63;;;4.20;95.90;;;;;;4905376;23;20077;-96
2023/02/09 13:08:52;;;;;;;20.02;12.57;;;4.30;96.00;;;;;;4866418;29;20049;-94
2023/02/09 13:11:31;;;;;;;19.88;12.35;;;4.30;95.90;;;;;;4844805;29;20037;-96
2023/02/09 13:14:06;;;;;;;21.23;12.23;;;4.30;96.00;;;;;;4872900;29;20042;-96
2023/02/09 13:16:57;;;;;;;22.33;13.05;;;4.30;96.10;;;;;;4849223;29;20125;-95
2023/02/09 13:19:56;;;;;;;23.20;12.63;;;4.30;96.20;;;;;;4850751;29;20059;-95
2023/02/09 13:22:24;;;;;;;21.17;12.98;;;4.30;96.30;;;;;;4858827;29;20053;-94
2023/02/09 13:25:19;;;;;;;19.55;13.15;;;4.30;96.40;;;;;;4867180;29;20126;-95
2023/02/09 13:34:41;;;;;;;18.35;12.20;;;4.40;96.50;;;;;;4878445;23;20087;-94
2023/02/09 13:37:48;;;;;;;19.20;12.00;;;4.30;96.50;;;;;;4905398;29;20055;-94
2023/02/09 13:40:30;;;;;;;22.23;13.43;;;4.40;96.60;;;;;;4899683;29;20052;-96
2023/02/09 13:43:33;;;;;;;23.52;12.77;;;4.30;96.60;;;;;;4901652;29;20048;-93
2023/02/09 13:46:38;;;;;;;20.95;12.93;;;4.40;96.60;;;;;;4902207;29;20053;-95
2023/02/09 13:49:12;;;;;;;19.25;12.32;;;4.30;96.60;;;;;;4885939;29;20561;-95
2023/02/09 13:52:25;;;;;;;23.23;13.65;;;4.40;96.70;;;;;;4844184;29;20057;-93
2023/02/09 13:55:19;;;;;;;24.63;14.18;;;4.40;96.80;;;;;;4880182;29;20061;-94
2023/02/09 13:58:06;;;;;;;;;;;4.40;96.80;;;;;;4867274;29;20049;-93
2023/02/09 14:00:59;;;;;;;22.50;13.85;;;4.40;96.90;;;;;;4882936;29;19943;-94
2023/02/09 14:04:05;;;;;;;23.30;13.40;;;4.30;96.90;;;;;;4884549;29;20089;-95
2023/02/09 14:07:09;;;;;;;24.63;13.55;;;4.40;97.30;;;;;;4880395;29;20057;-93
2023/02/09 14:09:56;;;;;;;;;;;4.40;97.00;;;;;;4892128;29;20048;-96
2023/02/09 14:12:49;;;;;;;24.70;13.82;;;4.30;97.10;;;;;;4913755;29;19923;-96
2023/02/09 14:19:10;;;;;;;22.85;14.05;;;4.40;97.10;;;;;;4912942;29;20056;-96
2023/02/09 14:24:25;;;;;;;23.65;13.85;;;4.40;97.30;;;;;;4904264;29;20112;-96
2023/02/09 14:30:35;;;;;;;20.98;13.10;;;4.40;97.40;;;;;;4881639;29;20049;-94
2023/02/09 14:33:19;;;;;;;22.65;13.80;;;4.50;97.40;;;;;;4918635;29;20060;-92
2023/02/09 14:46:55;;;;;;;23.67;14.02;;;4.50;97.40;;;;;;4863163;29;20048;-94
2023/02/09 14:49:21;;;;;;;22.65;14.02;;;4.50;97.60;;;;;;4845917;29;20124;-92
2023/02/09 14:52:17;;;;;;;22.20;14.57;;;4.60;97.60;;;;;;4862625;29;20049;-93
2023/02/09 14:54:48;;;;;;;23.88;15.07;;;4.50;97.60;;;;;;4862202;29;20049;-93
2023/02/09 14:57:14;;;;;;;22.55;15.32;;;4.50;97.70;;;;;;4845457;29;20050;-93